Time;durP1;ratioP1;P1;durP2;ratioP2;P2;SDS_P1;SDS_P2;PMS_P1;PMS_P2;Temp;Humidity;BMP_temperature;BMP_pressure;BME280_temperature;BME280_humidity;BME280_pressure;Samples;Min_cycle;Max_cycle;Signal;HPM_P1;HPM_P2
2022/05/03 13:07:42;;;;;;;;;;;22.40;60.60;;;;;;5103751;27;20306;-83
2022/05/03 13:10:07;;;;;;;;;;;22.50;61.70;;;;;;5116333;28;19912;-84
2022/05/03 13:12:34;;;;;;;6.20;4.63;;;22.60;59.80;;;;;;5084951;28;19913;-84
2022/05/03 13:15:00;;;;;;;4.15;3.75;;;22.50;59.60;;;;;;5107087;28;20047;-84
2022/05/03 13:17:25;;;;;;;7.78;4.57;;;22.30;60.60;;;;;;5081361;28;20032;-84
2022/05/03 13:19:51;;;;;;;4.60;4.03;;;22.20;60.70;;;;;;5070053;28;20039;-84
2022/05/03 13:22:17;;;;;;;3.97;3.65;;;22.00;62.50;;;;;;5068778;28;20035;-85
2022/05/03 13:24:42;;;;;;;4.55;3.90;;;21.80;61.80;;;;;;5053913;28;20028;-84
2022/05/03 13:27:08;;;;;;;4.10;3.70;;;21.50;64.10;;;;;;5073076;28;20104;-84
2022/05/03 13:29:34;;;;;;;4.38;3.97;;;21.20;64.20;;;;;;5084646;28;20059;-85
2022/05/03 13:32:02;;;;;;;4.85;4.35;;;20.90;65.10;;;;;;5032443;28;20433;-87
2022/05/03 13:34:27;;;;;;;5.45;4.18;;;20.70;64.70;;;;;;5066268;28;20056;-85
2022/05/03 13:42:21;;;;;;;4.53;4.13;;;20.10;65.90;;;;;;5070003;28;20067;-85
2022/05/03 13:44:48;;;;;;;5.72;4.53;;;19.90;66.90;;;;;;5068951;28;20486;-84
2022/05/03 13:47:14;;;;;;;6.90;4.57;;;19.80;67.80;;;;;;5064068;28;20127;-86
2022/05/03 13:49:40;;;;;;;5.82;4.68;;;19.70;68.30;;;;;;5032003;28;20028;-86
2022/05/03 13:52:06;;;;;;;8.77;5.18;;;19.60;67.20;;;;;;5096399;28;20500;-84
2022/05/03 13:54:32;;;;;;;7.10;4.72;;;19.50;68.60;;;;;;5064982;28;20079;-86
2022/05/03 13:56:58;;;;;;;5.00;4.50;;;19.70;69.70;;;;;;5067536;28;20060;-85
2022/05/03 13:59:24;;;;;;;4.88;4.45;;;19.90;70.60;;;;;;5030385;28;20032;-86
2022/05/03 14:01:50;;;;;;;6.97;5.15;;;20.10;68.50;;;;;;5076404;28;20481;-87
2022/05/03 14:04:15;;;;;;;7.32;5.47;;;20.20;67.20;;;;;;5083717;28;20024;-84
2022/05/03 14:06:42;;;;;;;5.70;4.57;;;20.40;67.80;;;;;;5063257;28;20418;-86
2022/05/03 14:09:07;;;;;;;5.38;4.43;;;20.60;65.60;;;;;;5067199;28;20032;-84
2022/05/03 14:11:33;;;;;;;5.13;4.28;;;20.90;64.30;;;;;;5096008;28;20028;-86
2022/05/03 14:14:00;;;;;;;5.28;4.78;;;21.20;65.10;;;;;;5068495;28;20403;-85
2022/05/03 14:16:28;;;;;;;6.80;4.28;;;21.50;62.50;;;;;;5062894;28;20105;-85
2022/05/03 14:18:53;;;;;;;6.20;4.25;;;21.60;62.70;;;;;;5067356;28;20033;-85
2022/05/03 14:21:20;;;;;;;5.00;4.53;;;21.60;60.40;;;;;;5051090;28;20514;-85
2022/05/03 14:23:46;;;;;;;6.05;4.38;;;21.60;60.90;;;;;;5050299;28;20540;-84
2022/05/03 14:26:12;;;;;;;5.38;3.92;;;21.50;59.60;;;;;;5050211;28;20033;-85
2022/05/03 14:28:38;;;;;;;5.63;4.00;;;21.20;59.70;;;;;;5051213;28;20040;-85
2022/05/03 14:31:04;;;;;;;7.50;4.38;;;21.10;60.90;;;;;;5050456;28;20036;-85
2022/05/03 14:33:29;;;;;;;5.90;4.38;;;21.00;61.70;;;;;;5068392;28;20045;-88
2022/05/03 14:35:56;;;;;;;5.80;4.68;;;21.00;62.60;;;;;;5037450;28;20066;-85
2022/05/03 14:38:21;;;;;;;4.63;4.10;;;21.00;60.70;;;;;;5058367;28;20704;-86
2022/05/03 14:40:47;;;;;;;6.60;4.38;;;21.00;60.60;;;;;;5052218;28;20040;-85
2022/05/03 14:43:13;;;;;;;7.15;4.28;;;21.00;60.90;;;;;;5070069;28;20035;-84
2022/05/03 14:45:38;;;;;;;4.35;3.95;;;21.00;61.00;;;;;;5032777;28;20040;-86
2022/05/03 14:48:06;;;;;;;4.80;3.45;;;20.80;60.60;;;;;;5062648;28;20035;-83
2022/05/03 14:50:32;;;;;;;4.45;4.00;;;20.70;61.30;;;;;;5079088;28;20094;-85
2022/05/03 14:52:58;;;;;;;6.13;4.20;;;20.60;62.40;;;;;;5069822;28;20043;-87
2022/05/03 14:55:24;;;;;;;5.20;3.53;;;20.40;62.20;;;;;;5086603;28;20032;-85
2022/05/03 15:03:18;;;;;;;6.53;5.25;;;20.30;61.80;;;;;;5058784;28;20052;-84
2022/05/03 15:05:44;;;;;;;7.47;4.95;;;20.20;62.20;;;;;;5020724;28;20067;-85
2022/05/03 15:08:10;;;;;;;6.93;5.35;;;20.00;64.10;;;;;;5066402;28;20509;-85
2022/05/03 15:10:38;;;;;;;6.03;4.97;;;19.90;66.10;;;;;;5052466;28;20039;-85
2022/05/03 15:13:05;;;;;;;11.20;7.03;;;19.70;68.60;;;;;;5066479;28;20032;-85
2022/05/03 15:15:32;;;;;;;6.72;4.90;;;19.40;69.70;;;;;;5076322;28;20048;-85
2022/05/03 15:17:59;;;;;;;5.07;4.57;;;19.00;70.70;;;;;;5064497;28;20635;-85
2022/05/03 15:20:28;;;;;;;6.78;5.30;;;18.70;72.50;;;;;;5049004;28;20036;-84
2022/05/03 15:25:42;;;;;;;5.68;5.07;;;18.20;75.00;;;;;;5070683;28;20102;-84
2022/05/03 15:28:08;;;;;;;7.55;5.47;;;18.00;75.00;;;;;;5051506;28;20043;-85
2022/05/03 15:30:35;;;;;;;7.03;6.20;;;18.00;76.50;;;;;;5059060;28;20077;-85
2022/05/03 15:33:01;;;;;;;5.68;5.13;;;17.90;77.20;;;;;;5051135;28;20599;-86
2022/05/03 15:35:30;;;;;;;5.35;4.85;;;17.90;77.30;;;;;;5068608;28;20035;-84
2022/05/03 15:37:58;;;;;;;7.85;5.55;;;17.90;77.60;;;;;;5058486;28;20028;-84
2022/05/03 15:40:24;;;;;;;6.03;5.25;;;17.90;78.10;;;;;;5057449;28;20035;-85
2022/05/03 15:42:50;;;;;;;7.05;6.35;;;17.90;78.00;;;;;;5028617;28;20031;-84
2022/05/03 15:45:17;;;;;;;5.35;4.85;;;17.80;76.90;;;;;;5035828;28;20718;-85
2022/05/03 15:47:43;;;;;;;8.27;5.05;;;17.80;77.70;;;;;;5035422;28;20892;-85
2022/05/03 15:50:11;;;;;;;7.95;5.32;;;17.80;80.40;;;;;;5036124;28;20483;-84
2022/05/03 15:52:46;;;;;;;6.75;4.75;;;17.80;82.50;;;;;;5069816;28;20086;-84
2022/05/03 15:55:13;;;;;;;6.75;5.03;;;17.90;77.40;;;;;;5072412;28;20040;-85
2022/05/03 15:57:39;;;;;;;9.13;5.22;;;18.00;78.10;;;;;;5071562;28;20127;-84
2022/05/03 16:00:10;;;;;;;6.13;5.53;;;18.00;79.20;;;;;;5055971;28;20032;-84
2022/05/03 16:02:37;;;;;;;6.45;5.15;;;18.00;80.80;;;;;;5064687;28;20039;-85
2022/05/03 16:05:04;;;;;;;7.55;5.75;;;18.00;81.40;;;;;;5089254;28;20021;-84
2022/05/03 16:07:30;;;;;;;6.75;5.55;;;18.10;81.30;;;;;;5086135;28;20490;-85
2022/05/03 16:09:57;;;;;;;6.25;5.13;;;18.20;77.80;;;;;;5060187;28;20138;-85
2022/05/03 16:12:24;;;;;;;7.05;5.53;;;18.20;76.80;;;;;;5052593;28;20721;-84
2022/05/03 16:14:51;;;;;;;6.57;5.82;;;18.20;78.40;;;;;;5055601;28;20035;-85
2022/05/03 16:17:16;;;;;;;6.75;5.00;;;18.20;78.10;;;;;;5067061;28;20039;-85
2022/05/03 16:19:42;;;;;;;6.47;5.30;;;18.10;81.40;;;;;;5069893;28;20474;-86
2022/05/03 16:22:10;;;;;;;7.07;5.25;;;18.10;79.30;;;;;;5052147;28;20151;-84
2022/05/03 16:24:38;;;;;;;5.53;5.03;;;18.00;80.20;;;;;;5089167;28;20020;-85
2022/05/03 16:27:05;;;;;;;5.20;4.75;;;17.90;77.00;;;;;;5043185;28;20506;-84
2022/05/03 16:29:32;;;;;;;5.70;5.20;;;17.80;78.10;;;;;;5043369;28;20552;-84
2022/05/03 16:31:58;;;;;;;5.63;5.13;;;17.80;79.00;;;;;;5080679;28;20066;-84
2022/05/03 16:34:24;;;;;;;6.00;5.32;;;17.70;77.70;;;;;;5018944;28;20048;-84
2022/05/03 16:42:19;;;;;;;6.40;4.93;;;17.70;78.80;;;;;;5049735;28;20036;-85
2022/05/03 16:44:47;;;;;;;6.65;5.95;;;17.70;77.10;;;;;;5069237;28;20104;-84
2022/05/03 16:47:14;;;;;;;7.88;4.88;;;17.70;77.20;;;;;;5086239;28;20036;-85
2022/05/03 16:49:42;;;;;;;6.15;5.38;;;17.60;77.00;;;;;;5082979;28;20037;-85
2022/05/03 16:52:14;;;;;;;5.72;5.22;;;17.70;78.00;;;;;;5052418;28;20039;-84
2022/05/03 16:54:41;;;;;;;7.38;6.65;;;17.70;78.20;;;;;;5052134;28;20056;-85
2022/05/03 16:57:07;;;;;;;6.38;5.65;;;17.70;76.00;;;;;;5053982;28;20039;-85
2022/05/03 16:59:33;;;;;;;6.50;5.32;;;17.70;76.50;;;;;;5050623;28;20032;-84
2022/05/03 17:01:59;;;;;;;8.07;7.05;;;17.70;75.00;;;;;;5075284;28;20483;-84
2022/05/03 17:04:26;;;;;;;5.90;4.75;;;17.70;75.60;;;;;;5065796;28;20029;-85
2022/05/03 17:06:52;;;;;;;6.70;5.35;;;17.70;75.90;;;;;;5071578;28;20044;-85
2022/05/03 17:09:18;;;;;;;6.43;5.82;;;17.60;77.50;;;;;;5034702;28;20039;-85
2022/05/03 17:11:44;;;;;;;6.63;5.93;;;17.60;78.50;;;;;;5035229;28;20251;-85
2022/05/03 17:14:12;;;;;;;6.55;5.43;;;17.50;80.00;;;;;;5054816;28;20501;-86
2022/05/03 17:16:40;;;;;;;5.55;5.05;;;17.50;77.00;;;;;;5071009;28;20066;-84
2022/05/03 17:19:06;;;;;;;5.47;4.95;;;17.50;77.90;;;;;;5070709;28;20033;-85
2022/05/03 17:21:34;;;;;;;5.95;4.32;;;17.40;77.50;;;;;;5066722;28;20534;-85
2022/05/03 17:24:00;;;;;;;5.78;4.78;;;17.30;78.80;;;;;;5057223;28;20027;-85
2022/05/03 17:26:26;;;;;;;5.65;5.13;;;17.30;79.40;;;;;;5054171;28;20077;-85
2022/05/03 17:28:58;;;;;;;6.40;5.03;;;17.30;82.90;;;;;;5052424;28;20242;-85
2022/05/03 17:31:26;;;;;;;5.43;4.93;;;17.20;81.70;;;;;;5070379;28;20148;-85
2022/05/03 17:33:53;;;;;;;5.63;5.00;;;17.10;80.80;;;;;;5087109;28;20024;-85
2022/05/03 17:36:19;;;;;;;6.88;5.10;;;17.10;82.70;;;;;;5087732;28;20043;-85
2022/05/03 17:38:46;;;;;;;7.82;5.55;;;17.10;82.40;;;;;;5054033;28;20073;-85
2022/05/03 17:41:13;;;;;;;5.30;4.80;;;17.10;83.50;;;;;;5057336;28;20024;-84
2022/05/03 17:43:39;;;;;;;5.70;5.07;;;17.00;84.40;;;;;;5042325;28;20131;-85
2022/05/03 17:46:06;;;;;;;5.65;4.68;;;17.00;81.00;;;;;;5067234;28;20041;-85
2022/05/03 17:48:32;;;;;;;7.22;4.95;;;17.00;82.60;;;;;;5067573;28;20035;-85
2022/05/03 17:50:57;;;;;;;8.00;6.60;;;17.00;82.70;;;;;;5064112;28;20426;-85
2022/05/03 17:56:07;;;;;;;6.50;5.85;;;17.10;81.20;;;;;;5065637;28;20037;-85
2022/05/03 17:58:33;;;;;;;5.57;5.00;;;17.00;83.50;;;;;;5031642;28;20028;-85
2022/05/03 18:00:59;;;;;;;7.43;5.63;;;17.00;86.40;;;;;;5093124;28;20028;-85
2022/05/03 18:03:25;;;;;;;5.63;5.13;;;17.00;88.10;;;;;;5042536;28;20043;-85
2022/05/03 18:05:54;;;;;;;6.22;4.80;;;17.00;88.70;;;;;;5038469;28;20029;-85
2022/05/03 18:08:20;;;;;;;5.00;4.53;;;16.90;85.50;;;;;;5070775;28;20029;-85
2022/05/03 18:10:46;;;;;;;5.78;5.05;;;16.80;84.90;;;;;;5062973;28;20027;-85
2022/05/03 18:13:12;;;;;;;5.28;4.60;;;16.80;81.60;;;;;;5086740;28;20558;-85
2022/05/03 18:15:39;;;;;;;7.38;5.55;;;16.70;81.40;;;;;;5050481;28;20033;-85
2022/05/03 18:18:08;;;;;;;7.07;5.32;;;16.70;82.30;;;;;;5045455;28;20028;-85
2022/05/03 18:20:35;;;;;;;8.35;6.32;;;16.60;82.30;;;;;;5058495;28;20454;-85
2022/05/03 18:23:01;;;;;;;6.18;5.03;;;16.50;82.60;;;;;;5063596;28;20047;-85
2022/05/03 18:25:27;;;;;;;6.32;4.60;;;16.40;82.60;;;;;;5069314;28;20104;-85
2022/05/03 18:27:53;;;;;;;8.18;6.80;;;16.30;82.90;;;;;;5067814;28;20025;-85
2022/05/03 18:30:22;;;;;;;6.90;6.18;;;16.30;83.60;;;;;;5050922;28;20036;-85
2022/05/03 18:32:49;;;;;;;6.75;5.60;;;16.20;82.80;;;;;;5034462;28;20510;-85
2022/05/03 18:35:16;;;;;;;6.53;4.82;;;16.10;84.40;;;;;;5057190;28;20047;-85
2022/05/03 18:37:42;;;;;;;6.32;4.32;;;16.00;84.30;;;;;;5061316;28;20473;-85
2022/05/03 18:40:09;;;;;;;6.05;4.82;;;15.90;84.70;;;;;;5078579;28;20483;-85
2022/05/03 18:42:34;;;;;;;6.07;5.43;;;15.90;85.20;;;;;;5055183;28;20032;-84
2022/05/03 18:45:00;;;;;;;7.13;5.38;;;15.80;85.60;;;;;;5037356;28;20085;-84
2022/05/03 18:47:26;;;;;;;5.22;4.68;;;15.70;87.50;;;;;;5039350;28;20043;-85
2022/05/03 18:49:52;;;;;;;6.70;5.43;;;15.60;88.10;;;;;;5053112;28;20527;-85
2022/05/03 18:52:17;;;;;;;7.00;5.63;;;15.50;90.10;;;;;;5068276;28;20039;-85
2022/05/03 18:57:27;;;;;;;6.03;5.30;;;15.30;91.00;;;;;;5046140;28;20044;-85
2022/05/03 18:59:52;;;;;;;8.32;5.72;;;15.10;91.20;;;;;;5052448;28;20032;-85
2022/05/03 19:02:18;;;;;;;6.57;5.20;;;15.00;91.70;;;;;;5021668;28;20039;-85
2022/05/03 19:04:44;;;;;;;5.43;4.75;;;14.90;91.50;;;;;;5072228;28;20543;-85
2022/05/03 19:07:09;;;;;;;8.25;4.78;;;14.80;91.60;;;;;;5083057;28;20036;-85
2022/05/03 19:09:35;;;;;;;7.55;5.32;;;14.70;91.30;;;;;;5070005;28;20088;-85
2022/05/03 19:12:04;;;;;;;7.85;5.13;;;14.60;91.40;;;;;;5069981;28;20690;-85
2022/05/03 19:14:30;;;;;;;6.65;5.30;;;14.60;91.90;;;;;;5070127;28;20028;-85
2022/05/03 19:16:56;;;;;;;5.15;4.43;;;14.50;92.10;;;;;;5068490;28;20032;-86
2022/05/03 19:19:25;;;;;;;7.20;5.43;;;14.40;92.00;;;;;;5033168;28;20032;-84
2022/05/03 19:21:51;;;;;;;6.00;5.28;;;14.40;92.90;;;;;;5059518;28;20090;-84
2022/05/03 19:32:30;;;;;;;7.63;5.55;;;14.00;94.00;;;;;;5078898;28;20251;-84
2022/05/03 19:34:57;;;;;;;6.40;5.32;;;13.90;94.40;;;;;;5032725;28;20037;-85
2022/05/03 19:37:24;;;;;;;8.07;5.28;;;13.90;94.80;;;;;;5065930;28;20081;-85
2022/05/03 19:39:49;;;;;;;6.82;5.85;;;13.90;95.10;;;;;;5063366;28;20116;-85
2022/05/03 19:42:15;;;;;;;7.55;6.07;;;13.90;95.60;;;;;;5061708;28;20525;-85
2022/05/03 19:44:41;;;;;;;8.43;5.70;;;13.80;95.60;;;;;;5067809;28;20028;-85
2022/05/03 19:47:08;;;;;;;6.03;5.43;;;13.70;95.80;;;;;;5057379;28;20032;-85
2022/05/03 19:49:34;;;;;;;10.13;7.85;;;13.60;95.90;;;;;;5050993;28;20117;-85
2022/05/03 19:52:00;;;;;;;16.27;10.23;;;13.50;96.00;;;;;;5067236;28;20654;-84
2022/05/03 19:54:26;;;;;;;9.43;7.47;;;13.40;96.10;;;;;;5043792;28;20028;-85
2022/05/03 19:56:52;;;;;;;7.03;5.80;;;13.40;96.40;;;;;;5058649;28;20398;-85
2022/05/03 19:59:19;;;;;;;8.25;5.60;;;13.40;97.00;;;;;;5063823;28;20078;-84
2022/05/03 20:01:50;;;;;;;5.82;5.28;;;13.40;97.30;;;;;;5052234;28;20128;-85
2022/05/03 20:04:17;;;;;;;6.10;4.88;;;13.40;97.30;;;;;;5059889;28;20032;-85
2022/05/03 20:06:43;;;;;;;7.20;5.78;;;13.30;97.90;;;;;;5048773;28;20075;-85
2022/05/03 20:09:10;;;;;;;8.50;5.63;;;13.30;98.20;;;;;;5065307;28;20791;-85
2022/05/03 20:11:36;;;;;;;7.28;5.72;;;13.20;98.80;;;;;;5068529;28;20043;-84
2022/05/03 20:14:02;;;;;;;6.72;5.63;;;13.20;98.80;;;;;;5087214;28;20036;-85
2022/05/03 20:16:27;;;;;;;9.38;5.97;;;13.10;99.90;;;;;;5046676;28;20039;-84
2022/05/03 20:18:53;;;;;;;6.60;5.60;;;13.00;99.90;;;;;;5034345;28;20039;-85
2022/05/03 20:21:19;;;;;;;7.80;5.90;;;12.90;99.90;;;;;;5068814;28;20067;-84
2022/05/03 20:23:45;;;;;;;8.10;5.38;;;12.80;99.90;;;;;;5051405;28;20126;-84
2022/05/03 20:26:13;;;;;;;9.45;5.35;;;12.80;99.90;;;;;;5058499;28;20124;-85
2022/05/03 20:28:39;;;;;;;8.43;5.82;;;12.70;99.90;;;;;;5058605;28;20031;-85
2022/05/03 20:31:04;;;;;;;8.68;6.25;;;12.70;99.90;;;;;;5066254;28;20502;-84
2022/05/03 20:33:30;;;;;;;6.38;5.75;;;12.70;99.90;;;;;;5024426;28;20502;-84
2022/05/03 20:35:56;;;;;;;7.53;5.32;;;12.60;99.90;;;;;;5014868;28;20036;-85
2022/05/03 20:38:21;;;;;;;9.02;5.57;;;12.60;99.90;;;;;;5030521;28;20024;-84
2022/05/03 20:40:47;;;;;;;6.72;6.03;;;12.60;99.90;;;;;;5032363;28;20731;-85
2022/05/03 20:43:13;;;;;;;9.85;6.72;;;12.50;99.90;;;;;;5023657;28;20055;-84
2022/05/03 20:45:38;;;;;;;8.85;6.32;;;12.40;99.90;;;;;;5044417;28;20090;-84
2022/05/03 20:50:49;;;;;;;7.90;6.20;;;12.40;99.90;;;;;;5055229;28;20128;-85
2022/05/03 20:53:15;;;;;;;7.80;5.97;;;12.30;99.90;;;;;;5059448;28;20127;-84
2022/05/03 20:55:40;;;;;;;6.75;5.18;;;12.20;99.90;;;;;;5055725;28;20042;-85
2022/05/03 20:58:07;;;;;;;6.93;6.00;;;12.20;99.90;;;;;;5055739;28;20139;-85
2022/05/03 21:00:33;;;;;;;8.32;5.50;;;12.20;99.90;;;;;;5045786;28;20028;-85
2022/05/03 21:02:59;;;;;;;8.82;6.53;;;12.10;99.90;;;;;;5050966;28;20038;-84
2022/05/03 21:05:26;;;;;;;7.35;6.30;;;12.10;99.90;;;;;;5034129;28;20020;-85
2022/05/03 21:07:52;;;;;;;8.27;6.18;;;12.10;99.90;;;;;;5048245;28;20122;-85
2022/05/03 21:10:18;;;;;;;8.02;6.18;;;12.00;99.90;;;;;;5082511;28;20127;-84
2022/05/03 21:12:43;;;;;;;7.80;5.90;;;12.00;99.90;;;;;;5070508;28;20056;-85
2022/05/03 21:15:10;;;;;;;6.68;5.90;;;12.00;99.90;;;;;;5064108;28;20047;-84
2022/05/03 21:17:36;;;;;;;12.38;6.65;;;12.00;99.90;;;;;;5045646;28;20060;-84
2022/05/03 21:20:03;;;;;;;7.93;6.13;;;12.00;99.90;;;;;;5085007;28;20070;-84
2022/05/03 21:22:30;;;;;;;6.80;6.10;;;11.90;99.90;;;;;;5051100;28;20024;-84
2022/05/03 21:24:55;;;;;;;9.38;6.40;;;12.00;99.90;;;;;;5052597;28;20453;-85
2022/05/03 21:27:24;;;;;;;7.65;6.28;;;11.90;99.90;;;;;;5025059;28;20056;-84
2022/05/03 21:29:50;;;;;;;6.47;5.50;;;11.90;99.90;;;;;;5086598;28;20063;-84
2022/05/03 21:32:17;;;;;;;6.40;5.47;;;11.80;99.90;;;;;;5071640;28;20055;-84
2022/05/03 21:34:44;;;;;;;8.02;5.57;;;11.80;99.90;;;;;;5054737;28;20508;-84
2022/05/03 21:37:11;;;;;;;6.43;5.28;;;11.80;99.90;;;;;;5080609;28;20067;-84
2022/05/03 21:39:37;;;;;;;7.43;5.15;;;11.80;99.90;;;;;;5064856;28;20040;-84
2022/05/03 21:42:03;;;;;;;7.15;5.68;;;11.70;99.90;;;;;;5053032;28;20085;-85
2022/05/03 21:44:28;;;;;;;8.80;6.35;;;11.70;99.90;;;;;;5063613;28;20039;-84
2022/05/03 21:46:54;;;;;;;7.85;6.15;;;11.70;99.90;;;;;;5052112;28;20043;-84
2022/05/03 21:49:20;;;;;;;7.68;6.00;;;11.60;99.90;;;;;;5063051;28;20036;-84
2022/05/03 21:51:45;;;;;;;8.07;6.28;;;11.60;99.90;;;;;;5038332;28;20775;-84
2022/05/03 21:54:11;;;;;;;11.52;6.53;;;11.60;99.90;;;;;;5051254;28;20113;-85
2022/05/03 21:56:37;;;;;;;11.23;6.22;;;11.60;99.90;;;;;;5035030;28;20462;-84
2022/05/03 21:59:03;;;;;;;8.85;5.85;;;11.50;99.90;;;;;;5064576;28;20245;-84
2022/05/03 22:01:29;;;;;;;8.45;6.85;;;11.50;99.90;;;;;;5062603;28;20032;-84
2022/05/03 22:03:55;;;;;;;9.32;6.15;;;11.50;99.90;;;;;;5035041;28;20028;-84
2022/05/03 22:06:21;;;;;;;7.65;6.35;;;11.50;99.90;;;;;;5060031;28;20028;-84
2022/05/03 22:08:46;;;;;;;8.52;6.47;;;11.40;99.90;;;;;;5069808;28;20028;-85
2022/05/03 22:11:12;;;;;;;7.53;6.55;;;11.40;99.90;;;;;;5042936;28;20114;-84
2022/05/03 22:13:38;;;;;;;8.63;6.00;;;11.40;99.90;;;;;;5041540;28;20060;-85
2022/05/03 22:16:04;;;;;;;9.30;6.95;;;11.50;99.90;;;;;;5050174;28;20074;-84
2022/05/03 22:18:30;;;;;;;7.78;6.18;;;11.50;99.90;;;;;;5068788;28;20024;-84
2022/05/03 22:20:57;;;;;;;8.15;6.50;;;11.50;99.90;;;;;;5067566;28;20032;-84
2022/05/03 22:23:22;;;;;;;7.63;6.18;;;11.50;99.90;;;;;;5041861;28;20127;-84
2022/05/03 22:25:48;;;;;;;7.53;6.35;;;11.40;99.90;;;;;;5066865;28;20107;-84
2022/05/03 22:28:14;;;;;;;6.75;6.00;;;11.40;99.90;;;;;;5070083;28;20083;-84
2022/05/03 22:30:40;;;;;;;8.23;5.95;;;11.40;99.90;;;;;;5054566;28;20024;-84
2022/05/03 22:33:06;;;;;;;7.90;6.10;;;11.30;99.90;;;;;;5054037;28;20662;-84
2022/05/03 22:35:32;;;;;;;8.38;6.20;;;11.20;99.90;;;;;;5046046;28;20050;-84
2022/05/03 22:37:58;;;;;;;7.75;6.55;;;11.10;99.90;;;;;;5034700;28;20037;-84
2022/05/03 22:40:24;;;;;;;8.52;6.25;;;11.10;99.90;;;;;;5033305;28;20029;-84
2022/05/03 22:42:50;;;;;;;9.10;6.60;;;11.10;99.90;;;;;;5080854;28;20115;-84
2022/05/03 22:45:17;;;;;;;8.82;6.75;;;11.10;99.90;;;;;;5069405;28;20082;-84
2022/05/03 22:47:44;;;;;;;7.97;6.20;;;11.00;99.90;;;;;;5069369;28;20055;-84
2022/05/03 22:50:12;;;;;;;8.00;7.20;;;10.90;99.90;;;;;;5071603;28;20043;-84
2022/05/03 22:52:39;;;;;;;8.35;6.68;;;10.80;99.90;;;;;;5054091;28;20088;-84
2022/05/03 22:55:05;;;;;;;10.05;6.95;;;10.90;99.90;;;;;;5036975;28;20040;-84
2022/05/03 22:57:32;;;;;;;8.75;5.93;;;10.90;99.90;;;;;;5028595;28;20044;-84
2022/05/03 22:59:58;;;;;;;8.45;6.03;;;11.00;99.90;;;;;;5087974;28;20025;-84
2022/05/03 23:02:24;;;;;;;8.65;6.85;;;10.80;99.90;;;;;;5074061;28;20558;-84
2022/05/03 23:04:50;;;;;;;9.40;7.10;;;10.70;99.90;;;;;;5043448;28;20024;-84
2022/05/03 23:07:17;;;;;;;8.05;6.57;;;10.60;99.90;;;;;;5056381;28;20493;-85
2022/05/03 23:09:44;;;;;;;10.10;6.82;;;10.50;99.90;;;;;;5056543;28;20051;-84
2022/05/03 23:12:10;;;;;;;10.05;6.55;;;10.50;99.90;;;;;;5069718;28;20063;-84
2022/05/03 23:14:37;;;;;;;9.07;6.45;;;10.50;99.90;;;;;;5074423;28;20035;-84
2022/05/03 23:17:03;;;;;;;9.75;6.30;;;10.50;99.90;;;;;;5072811;28;20063;-84
2022/05/03 23:19:33;;;;;;;8.57;6.50;;;10.50;99.90;;;;;;5072344;28;20107;-84
2022/05/03 23:21:59;;;;;;;9.70;6.30;;;10.50;99.90;;;;;;5057216;28;20509;-85
2022/05/03 23:24:25;;;;;;;10.23;7.22;;;10.50;99.90;;;;;;5056780;28;20028;-84
2022/05/03 23:26:51;;;;;;;9.68;7.22;;;10.50;99.90;;;;;;5072499;28;20067;-84
2022/05/03 23:29:17;;;;;;;11.02;7.50;;;10.60;99.90;;;;;;5072918;28;20055;-84
2022/05/03 23:31:44;;;;;;;8.60;6.32;;;10.60;99.90;;;;;;5044118;28;20033;-85
2022/05/03 23:36:56;;;;;;;10.60;7.20;;;10.50;99.90;;;;;;5069617;28;20029;-84
2022/05/03 23:39:23;;;;;;;10.52;7.13;;;10.40;99.90;;;;;;5056017;28;20123;-84
2022/05/03 23:41:52;;;;;;;9.70;7.32;;;10.30;99.90;;;;;;5069957;28;20039;-83
2022/05/03 23:44:18;;;;;;;11.13;7.80;;;10.20;99.90;;;;;;5089839;28;20512;-84
2022/05/03 23:46:44;;;;;;;7.75;6.95;;;10.10;99.90;;;;;;5055151;28;20732;-84
2022/05/03 23:49:09;;;;;;;10.30;7.15;;;10.00;99.90;;;;;;5072091;28;20104;-84
2022/05/03 23:51:35;;;;;;;9.38;7.13;;;10.00;99.90;;;;;;5054944;28;20062;-84
2022/05/03 23:54:01;;;;;;;9.35;7.60;;;10.00;99.90;;;;;;5039559;28;20024;-84
2022/05/03 23:56:26;;;;;;;12.52;7.55;;;10.00;99.90;;;;;;5022186;28;20037;-84
2022/05/03 23:58:52;;;;;;;10.52;7.97;;;10.00;99.90;;;;;;5051898;28;20056;-84
